Time;durP1;ratioP1;P1;durP2;ratioP2;P2;SDS_P1;SDS_P2;PMS_P1;PMS_P2;Temp;Humidity;BMP_temperature;BMP_pressure;BME280_temperature;BME280_humidity;BME280_pressure;Samples;Min_cycle;Max_cycle;Signal;HPM_P1;HPM_P2
2023/08/16 00:01:42;;;;;;;3.47;2.07;;;;;;;;;;5096252;28;20201;-88
2023/08/16 00:04:09;;;;;;;5.47;2.13;;;;;;;;;;5096801;28;20187;-87
2023/08/16 00:06:37;;;;;;;4.30;2.37;;;;;;;;;;5097092;28;20652;-87
2023/08/16 00:09:05;;;;;;;4.07;2.30;;;;;;;;;;5096873;28;20194;-87
2023/08/16 00:11:32;;;;;;;4.27;2.20;;;;;;;;;;5097001;28;20233;-87
2023/08/16 00:14:01;;;;;;;4.90;2.40;;;;;;;;;;5096720;28;20221;-87
2023/08/16 00:16:28;;;;;;;6.10;2.43;;;;;;;;;;5096518;28;20221;-87
2023/08/16 00:18:55;;;;;;;5.67;2.50;;;;;;;;;;5096687;28;20236;-87
2023/08/16 00:21:22;;;;;;;4.93;2.33;;;;;;;;;;5096501;28;20726;-87
2023/08/16 00:23:49;;;;;;;4.13;2.17;;;;;;;;;;5096282;28;20210;-87
2023/08/16 00:26:17;;;;;;;5.10;2.27;;;;;;;;;;5096833;28;20286;-87
2023/08/16 00:28:45;;;;;;;4.57;2.60;;;;;;;;;;5096273;28;20278;-87
2023/08/16 00:31:14;;;;;;;3.17;2.13;;;;;;;;;;5096714;28;20255;-86
2023/08/16 00:33:41;;;;;;;4.47;2.50;;;;;;;;;;5096708;28;20714;-87
2023/08/16 00:36:09;;;;;;;5.57;2.20;;;;;;;;;;5096156;28;20623;-86
2023/08/16 00:38:42;;;;;;;3.80;2.50;;;;;;;;;;5096402;28;20747;-88
2023/08/16 00:41:09;;;;;;;5.47;2.30;;;;;;;;;;5096428;28;20237;-87
2023/08/16 00:43:36;;;;;;;5.97;2.63;;;;;;;;;;5096429;28;20274;-87
2023/08/16 00:46:04;;;;;;;7.03;2.50;;;;;;;;;;5096020;28;20632;-87
2023/08/16 00:48:34;;;;;;;5.20;2.40;;;;;;;;;;5096577;28;20204;-86
2023/08/16 00:51:02;;;;;;;8.43;2.80;;;;;;;;;;5095912;28;20380;-87
2023/08/16 00:53:30;;;;;;;4.67;2.60;;;;;;;;;;5096049;28;20337;-87
2023/08/16 00:55:58;;;;;;;4.67;2.60;;;;;;;;;;5096171;28;20198;-87
2023/08/16 00:58:26;;;;;;;8.50;2.93;;;;;;;;;;5095844;28;20282;-86
2023/08/16 01:00:53;;;;;;;4.10;2.70;;;;;;;;;;5096074;28;20214;-87
2023/08/16 01:03:21;;;;;;;5.40;2.27;;;;;;;;;;5096078;28;20194;-87
2023/08/16 01:05:49;;;;;;;4.00;2.70;;;;;;;;;;5095459;28;20277;-87
2023/08/16 01:08:16;;;;;;;3.97;2.90;;;;;;;;;;5095925;28;20190;-87
2023/08/16 01:10:50;;;;;;;4.63;2.73;;;;;;;;;;5094452;28;20198;-87
2023/08/16 01:13:21;;;;;;;5.47;2.93;;;;;;;;;;5095638;28;20186;-87
2023/08/16 01:15:50;;;;;;;4.53;2.93;;;;;;;;;;5096347;28;20273;-88
2023/08/16 01:18:17;;;;;;;4.80;2.70;;;;;;;;;;5096128;28;20293;-87
2023/08/16 01:20:47;;;;;;;6.33;2.80;;;;;;;;;;5095214;28;20294;-86
2023/08/16 01:23:20;;;;;;;4.87;2.80;;;;;;;;;;5095866;28;20191;-87
2023/08/16 01:25:49;;;;;;;4.93;2.80;;;;;;;;;;5095577;28;20620;-87
2023/08/16 01:28:18;;;;;;;4.53;2.70;;;;;;;;;;5095194;28;20286;-86
2023/08/16 01:30:46;;;;;;;4.97;2.83;;;;;;;;;;5096202;28;20291;-87
2023/08/16 01:33:14;;;;;;;5.30;2.90;;;;;;;;;;5095584;28;20218;-87
2023/08/16 01:35:42;;;;;;;4.07;2.53;;;;;;;;;;5095252;28;20198;-86
2023/08/16 01:38:10;;;;;;;5.93;2.90;;;;;;;;;;5095594;28;20190;-87
2023/08/16 01:40:39;;;;;;;4.77;2.50;;;;;;;;;;5095355;28;20230;-87
2023/08/16 01:43:08;;;;;;;5.50;3.20;;;;;;;;;;5095158;28;20261;-87
2023/08/16 01:45:37;;;;;;;4.27;2.63;;;;;;;;;;5095253;28;20663;-87
2023/08/16 01:48:04;;;;;;;4.30;2.70;;;;;;;;;;5095073;28;20823;-88
2023/08/16 01:50:32;;;;;;;4.63;2.70;;;;;;;;;;5095120;28;20290;-87
2023/08/16 01:52:59;;;;;;;6.30;3.30;;;;;;;;;;5095124;28;20262;-87
2023/08/16 01:55:27;;;;;;;5.17;2.80;;;;;;;;;;5094973;28;20214;-87
2023/08/16 01:57:54;;;;;;;6.50;3.00;;;;;;;;;;5085983;28;20282;-87
2023/08/16 02:00:22;;;;;;;6.33;3.30;;;;;;;;;;5074737;28;20284;-87
2023/08/16 02:02:50;;;;;;;4.97;3.00;;;;;;;;;;5074575;28;20613;-86
2023/08/16 02:05:18;;;;;;;4.30;2.90;;;;;;;;;;5074387;28;20214;-87
2023/08/16 02:07:45;;;;;;;5.73;2.90;;;;;;;;;;5074520;28;20222;-87
2023/08/16 02:10:12;;;;;;;4.10;3.20;;;;;;;;;;5073501;28;20199;-88
2023/08/16 02:12:40;;;;;;;5.00;3.10;;;;;;;;;;5074359;28;20680;-85
2023/08/16 02:15:07;;;;;;;4.40;3.23;;;;;;;;;;5074545;28;20274;-87
2023/08/16 02:17:35;;;;;;;4.83;3.33;;;;;;;;;;5087213;28;20229;-87
2023/08/16 02:20:04;;;;;;;4.70;3.50;;;;;;;;;;5094383;28;20254;-88
2023/08/16 02:22:31;;;;;;;6.83;3.53;;;;;;;;;;5095061;28;20190;-87
2023/08/16 02:24:58;;;;;;;4.93;3.00;;;;;;;;;;5094464;28;20274;-87
2023/08/16 02:27:26;;;;;;;5.63;3.30;;;;;;;;;;5094289;28;20256;-87
2023/08/16 02:29:53;;;;;;;4.07;2.97;;;;;;;;;;5094150;28;20194;-87
2023/08/16 02:32:20;;;;;;;4.73;3.47;;;;;;;;;;5094308;28;20233;-87
2023/08/16 02:34:48;;;;;;;4.97;3.30;;;;;;;;;;5094630;28;20240;-87
2023/08/16 02:37:16;;;;;;;4.80;3.13;;;;;;;;;;5094095;28;20285;-87
2023/08/16 02:39:43;;;;;;;5.37;3.03;;;;;;;;;;5094147;28;20290;-88
2023/08/16 02:42:10;;;;;;;6.07;3.70;;;;;;;;;;5094324;28;20285;-86
2023/08/16 02:44:38;;;;;;;4.13;3.30;;;;;;;;;;5094314;28;20183;-87
2023/08/16 02:47:05;;;;;;;5.90;3.20;;;;;;;;;;5093751;28;20210;-87
2023/08/16 02:49:32;;;;;;;5.00;3.53;;;;;;;;;;5094449;28;20225;-87
2023/08/16 02:51:59;;;;;;;5.10;3.37;;;;;;;;;;5094181;28;20278;-87
2023/08/16 02:54:28;;;;;;;6.53;3.50;;;;;;;;;;5092796;28;20602;-86
2023/08/16 02:56:55;;;;;;;5.17;3.27;;;;;;;;;;5093819;28;20231;-87
2023/08/16 02:59:23;;;;;;;5.07;3.67;;;;;;;;;;5093522;28;20274;-87
2023/08/16 03:01:50;;;;;;;4.57;3.00;;;;;;;;;;5093598;28;20664;-87
2023/08/16 03:04:17;;;;;;;4.77;3.37;;;;;;;;;;5093671;28;20199;-86
2023/08/16 03:06:45;;;;;;;6.80;3.40;;;;;;;;;;5093400;28;20222;-88
2023/08/16 03:09:12;;;;;;;5.97;3.30;;;;;;;;;;5093614;28;20206;-87
2023/08/16 03:11:41;;;;;;;7.30;3.93;;;;;;;;;;5092856;28;20225;-87
2023/08/16 03:14:08;;;;;;;5.27;3.70;;;;;;;;;;5093697;28;20281;-88
2023/08/16 03:16:36;;;;;;;7.03;3.77;;;;;;;;;;5093369;28;20210;-88
2023/08/16 03:19:03;;;;;;;5.00;4.20;;;;;;;;;;5093900;28;20658;-87
2023/08/16 03:21:33;;;;;;;7.77;3.70;;;;;;;;;;5093325;28;20250;-87
2023/08/16 03:24:00;;;;;;;5.37;4.10;;;;;;;;;;5093293;28;20193;-87
2023/08/16 03:26:28;;;;;;;6.50;4.07;;;;;;;;;;5093315;28;20281;-87
2023/08/16 03:28:57;;;;;;;7.67;3.67;;;;;;;;;;5093597;28;20630;-87
2023/08/16 03:31:24;;;;;;;5.73;3.93;;;;;;;;;;5093850;28;20293;-87
2023/08/16 03:33:52;;;;;;;6.10;3.87;;;;;;;;;;5094236;28;20220;-89
2023/08/16 03:36:19;;;;;;;6.93;4.13;;;;;;;;;;5093508;28;20285;-89
2023/08/16 03:38:46;;;;;;;5.53;3.80;;;;;;;;;;5093599;28;20218;-89
2023/08/16 03:41:13;;;;;;;4.10;3.67;;;;;;;;;;5093443;28;20320;-87
2023/08/16 03:43:40;;;;;;;5.00;3.90;;;;;;;;;;5093439;28;20714;-89
2023/08/16 03:46:09;;;;;;;7.27;3.87;;;;;;;;;;5093161;28;20670;-88
2023/08/16 03:48:37;;;;;;;5.30;3.70;;;;;;;;;;5093702;28;20199;-88
2023/08/16 03:51:04;;;;;;;4.67;4.13;;;;;;;;;;5093256;28;20202;-89
2023/08/16 03:53:31;;;;;;;5.83;4.53;;;;;;;;;;5093154;28;20321;-89
2023/08/16 03:56:00;;;;;;;4.60;4.07;;;;;;;;;;5093338;28;20270;-88
2023/08/16 03:58:27;;;;;;;6.97;4.50;;;;;;;;;;5093580;28;20221;-88
2023/08/16 04:00:55;;;;;;;6.00;4.00;;;;;;;;;;5092934;28;20276;-89
2023/08/16 04:03:24;;;;;;;4.50;3.73;;;;;;;;;;5093537;28;20195;-89
2023/08/16 04:05:52;;;;;;;7.23;4.63;;;;;;;;;;5092330;28;20198;-88
2023/08/16 04:08:20;;;;;;;6.63;4.70;;;;;;;;;;5093812;28;20214;-88
2023/08/16 04:10:47;;;;;;;11.87;4.93;;;;;;;;;;5093202;28;20277;-89
2023/08/16 04:13:15;;;;;;;8.43;4.90;;;;;;;;;;5093200;28;20194;-89
2023/08/16 04:15:42;;;;;;;6.73;4.70;;;;;;;;;;5092952;28;20297;-88
2023/08/16 04:18:10;;;;;;;7.10;4.60;;;;;;;;;;5093100;28;20202;-88
2023/08/16 04:20:38;;;;;;;6.00;4.53;;;;;;;;;;5092833;28;20745;-88
2023/08/16 04:23:06;;;;;;;6.90;4.87;;;;;;;;;;5096388;28;20711;-88
2023/08/16 04:25:33;;;;;;;7.43;4.90;;;;;;;;;;5096541;28;20734;-89
2023/08/16 04:28:00;;;;;;;7.40;5.17;;;;;;;;;;5096879;28;20190;-89
2023/08/16 04:30:28;;;;;;;6.70;4.90;;;;;;;;;;5096433;28;20281;-88
2023/08/16 04:32:55;;;;;;;7.60;4.90;;;;;;;;;;5096572;28;20273;-89
2023/08/16 04:35:22;;;;;;;5.77;4.97;;;;;;;;;;5096854;28;20273;-88
2023/08/16 04:37:51;;;;;;;7.77;5.10;;;;;;;;;;5096325;28;20237;-88
2023/08/16 04:40:18;;;;;;;6.70;5.20;;;;;;;;;;5096742;28;20209;-88
2023/08/16 04:42:46;;;;;;;12.53;5.17;;;;;;;;;;5096080;28;20238;-89
2023/08/16 04:45:14;;;;;;;6.70;4.83;;;;;;;;;;5096766;28;20273;-88
2023/08/16 04:47:41;;;;;;;6.63;4.67;;;;;;;;;;5096552;28;20206;-88
2023/08/16 04:50:09;;;;;;;6.37;5.20;;;;;;;;;;5096466;28;20557;-88
2023/08/16 04:52:37;;;;;;;8.43;5.23;;;;;;;;;;5096589;28;20367;-88
2023/08/16 04:55:07;;;;;;;11.37;5.03;;;;;;;;;;5096797;28;20225;-88
2023/08/16 04:57:34;;;;;;;8.17;5.13;;;;;;;;;;5095839;28;20773;-88
2023/08/16 05:00:06;;;;;;;7.17;5.10;;;;;;;;;;5096450;28;20236;-89
2023/08/16 05:02:33;;;;;;;10.57;5.33;;;;;;;;;;5096556;28;20238;-89
2023/08/16 05:05:01;;;;;;;8.90;5.20;;;;;;;;;;5096254;28;20214;-88
2023/08/16 05:07:28;;;;;;;7.53;5.00;;;;;;;;;;5096118;28;20581;-89
2023/08/16 05:09:56;;;;;;;7.50;5.33;;;;;;;;;;5096085;28;20289;-88
2023/08/16 05:12:24;;;;;;;9.77;6.10;;;;;;;;;;5096063;28;20194;-88
2023/08/16 05:14:52;;;;;;;9.70;5.53;;;;;;;;;;5096357;28;20194;-88
2023/08/16 05:17:19;;;;;;;9.17;6.03;;;;;;;;;;5085126;28;20237;-89
2023/08/16 05:19:46;;;;;;;10.17;6.07;;;;;;;;;;5075506;28;20286;-88
2023/08/16 05:22:14;;;;;;;9.50;5.50;;;;;;;;;;5075715;28;20609;-89
2023/08/16 05:24:41;;;;;;;7.87;5.10;;;;;;;;;;5075769;28;20282;-89
2023/08/16 05:27:12;;;;;;;10.00;5.40;;;;;;;;;;5075196;28;20192;-88
2023/08/16 05:29:41;;;;;;;8.00;5.67;;;;;;;;;;5075349;28;20191;-88
2023/08/16 05:32:08;;;;;;;12.63;6.30;;;;;;;;;;5075683;28;20286;-89
2023/08/16 05:34:35;;;;;;;8.90;6.17;;;;;;;;;;5074387;28;20200;-88
2023/08/16 05:37:05;;;;;;;7.10;5.90;;;;;;;;;;5075236;28;20214;-89
2023/08/16 05:39:32;;;;;;;9.33;6.43;;;;;;;;;;5075258;28;20195;-89
2023/08/16 05:42:00;;;;;;;9.50;6.33;;;;;;;;;;5074696;28;20769;-88
2023/08/16 05:44:27;;;;;;;8.37;6.07;;;;;;;;;;5074866;28;20278;-89
2023/08/16 05:46:55;;;;;;;8.13;6.90;;;;;;;;;;5075496;28;20641;-88
2023/08/16 05:49:23;;;;;;;10.00;7.20;;;;;;;;;;5075424;28;20282;-89
2023/08/16 05:51:50;;;;;;;10.17;7.13;;;;;;;;;;5074841;28;20234;-89
2023/08/16 05:54:17;;;;;;;10.53;7.40;;;;;;;;;;5074501;28;20234;-88
2023/08/16 05:56:44;;;;;;;11.97;7.03;;;;;;;;;;5074606;28;20195;-89
2023/08/16 05:59:12;;;;;;;9.47;7.07;;;;;;;;;;5074781;28;20724;-89
2023/08/16 06:01:39;;;;;;;9.40;6.77;;;;;;;;;;5074791;28;20254;-88
2023/08/16 06:04:08;;;;;;;12.43;7.23;;;;;;;;;;5074778;28;20218;-89
2023/08/16 06:06:35;;;;;;;7.93;6.77;;;;;;;;;;5075020;28;20262;-88
2023/08/16 06:09:02;;;;;;;9.97;6.80;;;;;;;;;;5074633;28;20282;-89
2023/08/16 06:11:30;;;;;;;9.03;6.87;;;;;;;;;;5074673;28;20234;-88
2023/08/16 06:13:58;;;;;;;10.67;7.10;;;;;;;;;;5074764;28;20281;-88
2023/08/16 06:16:25;;;;;;;10.17;7.13;;;;;;;;;;5077921;28;20242;-89
2023/08/16 06:18:53;;;;;;;10.00;6.97;;;;;;;;;;5095209;28;20206;-89
2023/08/16 06:21:21;;;;;;;8.90;6.87;;;;;;;;;;5094828;28;20226;-89
2023/08/16 06:23:49;;;;;;;9.30;7.33;;;;;;;;;;5094864;28;20685;-89
2023/08/16 06:26:16;;;;;;;10.63;7.17;;;;;;;;;;5094150;28;20906;-89
2023/08/16 06:28:46;;;;;;;10.50;7.23;;;;;;;;;;5094605;28;20650;-88
2023/08/16 06:31:14;;;;;;;9.90;6.90;;;;;;;;;;5094191;28;20269;-89
2023/08/16 06:33:41;;;;;;;9.80;6.57;;;;;;;;;;5094565;28;20247;-89
2023/08/16 06:36:09;;;;;;;9.03;6.57;;;;;;;;;;5094433;28;20618;-88
2023/08/16 06:38:37;;;;;;;11.38;6.72;;;;;;;;;;5094471;28;20203;-89
2023/08/16 06:41:05;;;;;;;9.35;6.68;;;;;;;;;;5094057;28;20648;-89
2023/08/16 06:43:32;;;;;;;8.35;6.32;;;;;;;;;;5094345;28;20194;-89
2023/08/16 06:45:59;;;;;;;8.50;6.93;;;;;;;;;;5094405;28;20285;-88
2023/08/16 06:48:27;;;;;;;9.30;6.55;;;;;;;;;;5094175;28;20617;-89
2023/08/16 06:50:54;;;;;;;8.80;6.50;;;;;;;;;;5094604;28;20659;-89
2023/08/16 06:53:22;;;;;;;7.40;6.30;;;;;;;;;;5093685;28;20280;-89
2023/08/16 06:55:50;;;;;;;9.38;6.05;;;;;;;;;;5094214;28;20285;-89
2023/08/16 06:58:18;;;;;;;7.32;5.90;;;;;;;;;;5094673;28;20273;-89
2023/08/16 07:00:46;;;;;;;7.57;6.10;;;;;;;;;;5093873;28;20352;-89
2023/08/16 07:03:13;;;;;;;7.85;6.00;;;;;;;;;;5094073;28;20214;-89
2023/08/16 07:05:40;;;;;;;9.30;6.05;;;;;;;;;;5093695;28;20194;-89
2023/08/16 07:08:08;;;;;;;6.55;5.30;;;;;;;;;;5094439;28;20282;-89
2023/08/16 07:10:36;;;;;;;7.88;5.15;;;;;;;;;;5094227;28;20210;-90
2023/08/16 07:13:05;;;;;;;6.47;5.28;;;;;;;;;;5093918;28;20190;-90
2023/08/16 07:15:32;;;;;;;7.35;5.25;;;;;;;;;;5093647;28;20728;-90
2023/08/16 07:17:59;;;;;;;8.02;5.22;;;;;;;;;;5093797;28;20198;-89
2023/08/16 07:20:27;;;;;;;6.47;5.20;;;;;;;;;;5093994;28;20195;-89
2023/08/16 07:22:55;;;;;;;7.45;4.80;;;;;;;;;;5093761;28;20306;-89
2023/08/16 07:25:22;;;;;;;6.82;4.97;;;;;;;;;;5093802;28;20226;-90
2023/08/16 07:27:49;;;;;;;5.93;4.55;;;;;;;;;;5093900;28;20210;-89
2023/08/16 07:30:18;;;;;;;5.88;4.38;;;;;;;;;;5093900;28;20252;-89
2023/08/16 07:32:46;;;;;;;6.72;4.88;;;;;;;;;;5094174;28;20218;-89
2023/08/16 07:35:13;;;;;;;7.20;4.43;;;;;;;;;;5093858;28;20285;-89
2023/08/16 07:37:40;;;;;;;7.47;4.78;;;;;;;;;;5093440;28;20312;-90
2023/08/16 07:40:08;;;;;;;6.45;4.90;;;;;;;;;;5093769;28;20281;-90
2023/08/16 07:42:35;;;;;;;4.72;4.15;;;;;;;;;;5093437;28;20226;-90
2023/08/16 07:45:03;;;;;;;6.32;4.05;;;;;;;;;;5094088;28;20565;-90
2023/08/16 07:47:32;;;;;;;5.80;4.00;;;;;;;;;;5093617;28;20646;-90
2023/08/16 07:50:00;;;;;;;4.68;4.25;;;;;;;;;;5092459;28;20687;-91
2023/08/16 07:52:27;;;;;;;4.60;4.18;;;;;;;;;;5093468;28;20313;-91
2023/08/16 07:54:55;;;;;;;5.03;3.63;;;;;;;;;;5093685;28;20226;-91
2023/08/16 07:57:22;;;;;;;4.10;3.63;;;;;;;;;;5096218;28;20202;-91
2023/08/16 07:59:49;;;;;;;4.13;3.72;;;;;;;;;;5097402;28;20222;-91
2023/08/16 08:02:17;;;;;;;4.05;3.42;;;;;;;;;;5097284;28;20669;-92
2023/08/16 08:04:47;;;;;;;4.75;3.30;;;;;;;;;;5097677;28;20194;-91
2023/08/16 08:07:14;;;;;;;4.10;3.10;;;;;;;;;;5097330;28;20294;-91
2023/08/16 08:09:42;;;;;;;6.20;2.80;;;;;;;;;;5097404;28;20592;-91
2023/08/16 08:12:09;;;;;;;4.13;3.17;;;;;;;;;;5097307;28;20264;-91
2023/08/16 08:14:36;;;;;;;3.33;2.50;;;;;;;;;;5097596;28;20285;-91
2023/08/16 08:17:03;;;;;;;3.88;2.33;;;;;;;;;;5097016;28;20210;-91
2023/08/16 08:19:31;;;;;;;3.22;2.00;;;;;;;;;;5097567;28;20273;-91
2023/08/16 08:22:00;;;;;;;3.38;1.90;;;;;;;;;;5097088;28;20222;-91
2023/08/16 08:24:28;;;;;;;3.97;1.73;;;;;;;;;;5097361;28;20222;-92
2023/08/16 08:26:56;;;;;;;3.17;1.70;;;;;;;;;;5097437;28;20214;-92
2023/08/16 08:29:25;;;;;;;4.82;1.40;;;;;;;;;;5097022;28;20206;-92
2023/08/16 08:31:53;;;;;;;4.55;1.55;;;;;;;;;;5097132;28;20194;-93
2023/08/16 08:34:21;;;;;;;2.80;1.60;;;;;;;;;;5096986;28;20288;-92
2023/08/16 08:36:49;;;;;;;3.45;1.67;;;;;;;;;;5096914;28;20644;-92
2023/08/16 08:39:19;;;;;;;3.78;1.30;;;;;;;;;;5096967;28;20241;-92
2023/08/16 08:41:47;;;;;;;1.77;1.20;;;;;;;;;;5097121;28;20244;-92
2023/08/16 08:44:15;;;;;;;2.63;1.20;;;;;;;;;;5096845;28;20750;-93
2023/08/16 08:46:42;;;;;;;2.92;1.23;;;;;;;;;;5096880;28;20591;-92
2023/08/16 08:49:10;;;;;;;2.33;1.42;;;;;;;;;;5096367;28;20273;-93
2023/08/16 08:51:38;;;;;;;1.75;1.10;;;;;;;;;;5096941;28;20229;-92
2023/08/16 08:54:06;;;;;;;2.10;1.23;;;;;;;;;;5096377;28;20273;-92
2023/08/16 08:56:36;;;;;;;1.73;1.10;;;;;;;;;;5096694;28;20198;-93
2023/08/16 08:59:03;;;;;;;3.03;1.20;;;;;;;;;;5096807;28;20191;-92
2023/08/16 09:01:30;;;;;;;2.08;1.10;;;;;;;;;;5096735;28;20282;-93
2023/08/16 09:03:58;;;;;;;2.90;1.30;;;;;;;;;;5095956;27;20270;-93
2023/08/16 09:06:26;;;;;;;1.88;1.20;;;;;;;;;;5096117;28;20190;-93
2023/08/16 09:08:54;;;;;;;1.75;1.30;;;;;;;;;;5094895;28;20221;-92
2023/08/16 09:11:21;;;;;;;1.63;1.40;;;;;;;;;;5096401;28;20214;-93
2023/08/16 09:13:50;;;;;;;2.47;1.25;;;;;;;;;;5096841;28;20256;-93
2023/08/16 09:16:18;;;;;;;1.60;1.20;;;;;;;;;;5110140;27;20205;-91
2023/08/16 09:18:49;;;;;;;2.45;1.50;;;;;;;;;;5112610;28;20195;-93
2023/08/16 09:21:18;;;;;;;3.03;1.60;;;;;;;;;;5105677;28;20194;-93
2023/08/16 09:23:46;;;;;;;2.85;1.85;;;;;;;;;;5095930;28;20226;-94
2023/08/16 09:26:18;;;;;;;4.53;1.63;;;;;;;;;;5096118;28;20285;-94
2023/08/16 09:28:45;;;;;;;2.90;1.40;;;;;;;;;;5096336;28;20496;-93
2023/08/16 09:31:14;;;;;;;2.45;1.60;;;;;;;;;;5096097;28;20289;-94
2023/08/16 09:33:41;;;;;;;2.72;1.40;;;;;;;;;;5095668;28;20706;-94
2023/08/16 09:36:09;;;;;;;3.10;1.38;;;;;;;;;;5097900;28;20281;-94
2023/08/16 09:38:41;;;;;;;2.25;1.40;;;;;;;;;;5096794;28;20195;-94
2023/08/16 09:41:15;;;;;;;4.68;1.65;;;;;;;;;;5097637;28;20218;-94
2023/08/16 09:43:43;;;;;;;2.75;1.50;;;;;;;;;;5098963;28;20229;-94
2023/08/16 09:46:11;;;;;;;2.60;1.52;;;;;;;;;;5097630;28;20209;-94
2023/08/16 09:48:41;;;;;;;1.67;1.13;;;;;;;;;;5098841;28;20237;-94
2023/08/16 09:51:08;;;;;;;3.67;1.92;;;;;;;;;;5098926;28;20198;-93
2023/08/16 09:53:36;;;;;;;2.22;1.55;;;;;;;;;;5100884;28;20250;-94
2023/08/16 09:56:03;;;;;;;3.40;1.65;;;;;;;;;;5100384;28;20220;-95
2023/08/16 09:58:32;;;;;;;4.00;1.55;;;;;;;;;;5100388;28;20623;-94
2023/08/16 10:01:00;;;;;;;2.45;1.45;;;;;;;;;;5100058;28;20224;-95
2023/08/16 10:03:28;;;;;;;2.45;1.25;;;;;;;;;;5098181;28;20698;-94
2023/08/16 10:05:57;;;;;;;3.30;1.42;;;;;;;;;;5097860;28;20226;-94
2023/08/16 10:08:26;;;;;;;4.38;1.50;;;;;;;;;;5097374;28;20655;-93
2023/08/16 10:10:57;;;;;;;3.25;1.55;;;;;;;;;;5097010;28;20207;-94
2023/08/16 10:13:25;;;;;;;2.15;1.50;;;;;;;;;;5096884;28;20659;-93
2023/08/16 10:15:54;;;;;;;2.63;1.60;;;;;;;;;;5096213;28;20245;-93
2023/08/16 10:18:23;;;;;;;2.72;1.40;;;;;;;;;;5096331;28;20284;-93
2023/08/16 10:20:50;;;;;;;3.38;1.67;;;;;;;;;;5095821;28;20221;-94
2023/08/16 10:23:20;;;;;;;2.30;1.58;;;;;;;;;;5096193;28;20309;-94
2023/08/16 10:25:49;;;;;;;2.20;1.13;;;;;;;;;;5096312;28;20202;-94
2023/08/16 10:28:18;;;;;;;2.88;1.30;;;;;;;;;;5096401;28;20222;-93
2023/08/16 10:30:46;;;;;;;4.10;1.70;;;;;;;;;;5096025;28;20623;-93
2023/08/16 10:33:16;;;;;;;2.70;2.20;;;;;;;;;;5095801;28;20228;-93
2023/08/16 10:35:44;;;;;;;2.65;1.58;;;;;;;;;;5095911;28;20233;-93
2023/08/16 10:38:11;;;;;;;3.67;1.92;;;;;;;;;;5095699;28;20689;-93
2023/08/16 10:40:40;;;;;;;2.35;1.70;;;;;;;;;;5096226;28;20205;-94
2023/08/16 10:43:08;;;;;;;3.25;1.70;;;;;;;;;;5096885;28;20226;-94
2023/08/16 10:45:36;;;;;;;2.40;1.70;;;;;;;;;;5096265;28;20319;-94
2023/08/16 10:48:10;;;;;;;2.70;1.83;;;;;;;;;;5096350;28;20183;-95
2023/08/16 10:50:38;;;;;;;2.08;1.88;;;;;;;;;;5097602;28;20194;-95
2023/08/16 10:53:07;;;;;;;3.55;1.80;;;;;;;;;;5096589;28;20316;-94
2023/08/16 10:55:34;;;;;;;2.60;1.80;;;;;;;;;;5096144;28;20191;-93
2023/08/16 10:58:03;;;;;;;2.97;1.60;;;;;;;;;;5096238;28;20254;-95
2023/08/16 11:00:34;;;;;;;1.92;1.58;;;;;;;;;;5096288;28;20191;-94
2023/08/16 11:03:04;;;;;;;2.45;2.00;;;;;;;;;;5096643;28;20269;-93
2023/08/16 11:05:33;;;;;;;3.58;2.10;;;;;;;;;;5095820;28;20717;-94
2023/08/16 11:08:01;;;;;;;4.03;1.77;;;;;;;;;;5095622;28;20713;-94
2023/08/16 11:10:35;;;;;;;4.22;1.73;;;;;;;;;;5096098;28;20272;-94
2023/08/16 11:13:05;;;;;;;4.63;1.70;;;;;;;;;;5095495;28;20202;-93
2023/08/16 11:15:32;;;;;;;3.30;1.52;;;;;;;;;;5095371;28;20195;-94
2023/08/16 11:17:59;;;;;;;2.08;1.77;;;;;;;;;;5095753;28;20225;-93
2023/08/16 11:20:27;;;;;;;2.10;1.75;;;;;;;;;;5095450;28;20270;-94
2023/08/16 11:22:54;;;;;;;2.75;1.67;;;;;;;;;;5095372;28;20250;-93
2023/08/16 11:25:21;;;;;;;3.97;1.95;;;;;;;;;;5095112;28;20200;-93
2023/08/16 11:27:50;;;;;;;2.28;1.75;;;;;;;;;;5095490;28;20289;-93
2023/08/16 11:30:19;;;;;;;3.03;1.60;;;;;;;;;;5094715;28;20278;-93
2023/08/16 11:32:46;;;;;;;3.83;1.75;;;;;;;;;;5094981;28;20256;-94
2023/08/16 11:35:13;;;;;;;4.00;1.90;;;;;;;;;;5094816;28;20285;-94
2023/08/16 11:37:42;;;;;;;3.42;1.77;;;;;;;;;;5094995;28;20285;-94
2023/08/16 11:40:10;;;;;;;1.95;1.65;;;;;;;;;;5094737;28;20206;-93
2023/08/16 11:42:37;;;;;;;3.75;1.70;;;;;;;;;;5093789;28;20199;-94
2023/08/16 11:45:16;;;;;;;3.08;1.80;;;;;;;;;;5093528;28;20187;-94
2023/08/16 11:47:45;;;;;;;2.70;1.55;;;;;;;;;;5093899;28;20281;-93
2023/08/16 11:50:13;;;;;;;2.20;1.77;;;;;;;;;;5093971;28;20229;-94
2023/08/16 11:52:41;;;;;;;3.63;1.70;;;;;;;;;;5093735;28;20320;-94
2023/08/16 11:55:09;;;;;;;2.13;1.52;;;;;;;;;;5094150;28;20320;-94
2023/08/16 11:57:44;;;;;;;2.78;1.52;;;;;;;;;;5094094;28;20335;-94
2023/08/16 12:00:14;;;;;;;3.05;1.70;;;;;;;;;;5094824;28;20227;-93
2023/08/16 12:02:44;;;;;;;2.05;1.23;;;;;;;;;;5094637;28;20284;-94
2023/08/16 12:05:14;;;;;;;2.38;1.63;;;;;;;;;;5094195;28;20213;-94
2023/08/16 12:07:45;;;;;;;3.28;1.55;;;;;;;;;;5092902;28;20194;-94
2023/08/16 12:10:22;;;;;;;3.58;1.55;;;;;;;;;;5093508;28;20202;-94
2023/08/16 12:12:52;;;;;;;3.25;1.55;;;;;;;;;;5093523;28;20571;-93
2023/08/16 12:15:19;;;;;;;2.17;1.45;;;;;;;;;;5093632;28;20194;-94
2023/08/16 12:17:47;;;;;;;2.10;1.40;;;;;;;;;;5079216;28;20289;-94
2023/08/16 12:20:16;;;;;;;2.85;1.70;;;;;;;;;;5073391;28;20563;-94
2023/08/16 12:22:43;;;;;;;2.08;1.40;;;;;;;;;;5074460;28;20199;-93
2023/08/16 12:25:10;;;;;;;4.82;2.08;;;;;;;;;;5073702;28;20301;-92
2023/08/16 12:27:37;;;;;;;4.13;1.25;;;;;;;;;;5073231;28;20226;-93
2023/08/16 12:30:05;;;;;;;2.70;1.50;;;;;;;;;;5075142;28;20237;-94
2023/08/16 12:32:32;;;;;;;2.10;1.25;;;;;;;;;;5074861;28;20227;-94
2023/08/16 12:35:00;;;;;;;6.53;1.67;;;;;;;;;;5073565;28;20211;-95
2023/08/16 12:37:29;;;;;;;5.80;1.55;;;;;;;;;;5074129;28;20360;-94
2023/08/16 12:39:56;;;;;;;1.30;1.00;;;;;;;;;;5073595;28;20234;-95
2023/08/16 12:42:24;;;;;;;1.95;1.17;;;;;;;;;;5074355;28;20278;-93
2023/08/16 12:44:52;;;;;;;1.63;1.30;;;;;;;;;;5080112;28;20301;-94
2023/08/16 12:47:19;;;;;;;2.60;1.33;;;;;;;;;;5078548;28;20722;-93
2023/08/16 12:49:46;;;;;;;2.45;1.35;;;;;;;;;;5080352;28;20230;-94
2023/08/16 12:52:14;;;;;;;1.48;1.27;;;;;;;;;;5079070;28;20199;-94
2023/08/16 12:54:43;;;;;;;1.48;0.90;;;;;;;;;;5080803;28;20211;-94
2023/08/16 12:57:10;;;;;;;2.17;1.20;;;;;;;;;;5079443;28;20759;-94
2023/08/16 12:59:37;;;;;;;2.70;1.30;;;;;;;;;;5079239;28;20679;-94
2023/08/16 13:02:05;;;;;;;2.08;1.27;;;;;;;;;;5076679;28;20207;-93
2023/08/16 13:04:32;;;;;;;2.75;1.40;;;;;;;;;;5077298;28;20306;-93
2023/08/16 13:07:02;;;;;;;1.45;1.20;;;;;;;;;;5078708;28;20183;-94
2023/08/16 13:09:29;;;;;;;1.40;1.15;;;;;;;;;;5085035;28;20183;-94
2023/08/16 13:11:58;;;;;;;1.75;1.17;;;;;;;;;;5097106;28;20206;-93
2023/08/16 13:14:27;;;;;;;1.67;1.20;;;;;;;;;;5097851;28;20203;-94
2023/08/16 13:16:54;;;;;;;1.98;1.17;;;;;;;;;;5105137;28;20293;-94
2023/08/16 13:19:22;;;;;;;2.88;1.27;;;;;;;;;;5105125;28;20247;-94
2023/08/16 13:21:49;;;;;;;2.33;1.20;;;;;;;;;;5098352;28;20248;-93
2023/08/16 13:24:16;;;;;;;1.65;1.20;;;;;;;;;;5097110;28;20294;-93
2023/08/16 13:26:44;;;;;;;2.30;1.20;;;;;;;;;;5097080;28;20618;-94
2023/08/16 13:29:13;;;;;;;1.73;1.17;;;;;;;;;;5097799;28;20263;-94
2023/08/16 13:31:40;;;;;;;3.63;1.35;;;;;;;;;;5097812;28;20248;-93
2023/08/16 13:34:08;;;;;;;2.00;1.40;;;;;;;;;;5099755;28;20195;-94
2023/08/16 13:36:36;;;;;;;3.40;1.30;;;;;;;;;;5102070;28;20983;-95
2023/08/16 13:39:03;;;;;;;2.70;1.58;;;;;;;;;;5100684;28;20190;-94
2023/08/16 13:41:30;;;;;;;2.60;1.50;;;;;;;;;;5098209;28;20720;-94
2023/08/16 13:43:58;;;;;;;1.75;1.23;;;;;;;;;;5097612;28;20694;-94
2023/08/16 13:46:27;;;;;;;1.92;1.38;;;;;;;;;;5096985;28;20194;-93
2023/08/16 13:48:55;;;;;;;2.63;1.30;;;;;;;;;;5096794;28;20198;-93
2023/08/16 13:51:22;;;;;;;2.97;1.20;;;;;;;;;;5096170;28;20217;-94
2023/08/16 13:53:50;;;;;;;2.17;1.20;;;;;;;;;;5095655;28;20270;-94
2023/08/16 13:56:17;;;;;;;7.32;1.50;;;;;;;;;;5095751;28;20229;-94
2023/08/16 13:58:44;;;;;;;1.65;1.35;;;;;;;;;;5096073;28;20641;-93
2023/08/16 14:01:12;;;;;;;3.40;1.48;;;;;;;;;;5095875;28;20217;-93
2023/08/16 14:03:40;;;;;;;3.67;1.50;;;;;;;;;;5095910;28;20245;-93
2023/08/16 14:06:07;;;;;;;1.88;1.30;;;;;;;;;;5096089;28;20608;-94
2023/08/16 14:08:35;;;;;;;2.45;1.50;;;;;;;;;;5095608;28;20225;-94
2023/08/16 14:11:02;;;;;;;4.50;1.42;;;;;;;;;;5096821;28;20281;-94
2023/08/16 14:13:29;;;;;;;2.58;1.65;;;;;;;;;;5095939;28;20209;-94
2023/08/16 14:16:00;;;;;;;2.72;1.67;;;;;;;;;;5094971;28;20194;-93
2023/08/16 14:18:27;;;;;;;1.90;1.45;;;;;;;;;;5095292;28;20230;-93
2023/08/16 14:20:56;;;;;;;3.80;1.48;;;;;;;;;;5095369;28;20228;-93
2023/08/16 14:23:23;;;;;;;2.00;1.13;;;;;;;;;;5095031;28;20229;-92
2023/08/16 14:25:52;;;;;;;3.58;1.20;;;;;;;;;;5095299;28;20210;-93
2023/08/16 14:28:20;;;;;;;2.85;1.40;;;;;;;;;;5095712;28;20210;-93
2023/08/16 14:30:47;;;;;;;3.65;1.50;;;;;;;;;;5094871;28;20218;-92
2023/08/16 14:33:15;;;;;;;2.63;1.60;;;;;;;;;;5095316;28;20221;-93
2023/08/16 14:35:43;;;;;;;3.00;1.30;;;;;;;;;;5094840;28;20210;-93
2023/08/16 14:38:12;;;;;;;1.73;1.30;;;;;;;;;;5093644;28;20199;-94
2023/08/16 14:40:40;;;;;;;3.70;1.60;;;;;;;;;;5095639;28;20257;-92
2023/08/16 14:43:07;;;;;;;2.72;1.60;;;;;;;;;;5095405;28;20643;-93
2023/08/16 14:45:35;;;;;;;2.85;1.60;;;;;;;;;;5094644;28;20218;-92
2023/08/16 14:48:02;;;;;;;4.07;2.00;;;;;;;;;;5094420;28;20626;-93